sensor_id;sensor_type;location;lat;lon;timestamp;P1;durP1;ratioP1;P2;durP2;ratioP2
75810;SDS011;64449;50.016;19.954;2024-03-02T00:02:01;44.20;;;25.00;;
75810;SDS011;64449;50.016;19.954;2024-03-02T00:04:26;45.50;;;24.90;;
75810;SDS011;64449;50.016;19.954;2024-03-02T00:06:52;45.40;;;25.00;;
75810;SDS011;64449;50.016;19.954;2024-03-02T00:09:21;52.10;;;26.20;;
75810;SDS011;64449;50.016;19.954;2024-03-02T00:11:46;46.90;;;25.30;;
75810;SDS011;64449;50.016;19.954;2024-03-02T00:14:12;47.80;;;27.80;;
75810;SDS011;64449;50.016;19.954;2024-03-02T00:16:37;50.80;;;26.70;;
75810;SDS011;64449;50.016;19.954;2024-03-02T00:19:03;51.10;;;28.80;;
75810;SDS011;64449;50.016;19.954;2024-03-02T00:21:31;57.40;;;30.10;;
75810;SDS011;64449;50.016;19.954;2024-03-02T00:23:58;58.30;;;28.50;;
75810;SDS011;64449;50.016;19.954;2024-03-02T00:26:25;57.10;;;30.80;;
75810;SDS011;64449;50.016;19.954;2024-03-02T00:28:52;54.90;;;29.90;;
75810;SDS011;64449;50.016;19.954;2024-03-02T00:31:22;50.50;;;28.00;;
75810;SDS011;64449;50.016;19.954;2024-03-02T00:33:48;57.90;;;28.00;;
75810;SDS011;64449;50.016;19.954;2024-03-02T00:36:14;49.50;;;27.60;;
75810;SDS011;64449;50.016;19.954;2024-03-02T00:38:48;52.00;;;28.10;;
75810;SDS011;64449;50.016;19.954;2024-03-02T00:41:36;47.70;;;25.80;;
75810;SDS011;64449;50.016;19.954;2024-03-02T00:44:02;48.30;;;24.60;;
75810;SDS011;64449;50.016;19.954;2024-03-02T00:46:41;48.30;;;26.40;;
75810;SDS011;64449;50.016;19.954;2024-03-02T00:49:12;47.10;;;24.20;;
75810;SDS011;64449;50.016;19.954;2024-03-02T00:51:47;55.90;;;26.20;;
75810;SDS011;64449;50.016;19.954;2024-03-02T00:54:14;50.00;;;26.80;;
75810;SDS011;64449;50.016;19.954;2024-03-02T00:56:41;51.00;;;27.50;;
75810;SDS011;64449;50.016;19.954;2024-03-02T00:59:07;54.60;;;28.70;;
75810;SDS011;64449;50.016;19.954;2024-03-02T01:01:34;49.60;;;26.10;;
75810;SDS011;64449;50.016;19.954;2024-03-02T01:03:59;48.30;;;25.50;;
75810;SDS011;64449;50.016;19.954;2024-03-02T01:06:25;48.00;;;24.30;;
75810;SDS011;64449;50.016;19.954;2024-03-02T01:08:50;51.50;;;24.50;;
75810;SDS011;64449;50.016;19.954;2024-03-02T01:11:16;43.40;;;23.00;;
75810;SDS011;64449;50.016;19.954;2024-03-02T01:13:51;45.00;;;24.80;;
75810;SDS011;64449;50.016;19.954;2024-03-02T01:16:17;43.70;;;24.90;;
75810;SDS011;64449;50.016;19.954;2024-03-02T01:18:42;44.90;;;23.60;;
75810;SDS011;64449;50.016;19.954;2024-03-02T01:21:08;41.80;;;23.80;;
75810;SDS011;64449;50.016;19.954;2024-03-02T01:23:34;39.40;;;22.00;;
75810;SDS011;64449;50.016;19.954;2024-03-02T01:25:59;44.90;;;22.60;;
75810;SDS011;64449;50.016;19.954;2024-03-02T01:28:25;42.50;;;23.50;;
75810;SDS011;64449;50.016;19.954;2024-03-02T01:30:50;43.20;;;22.70;;
75810;SDS011;64449;50.016;19.954;2024-03-02T01:33:16;55.30;;;26.90;;
75810;SDS011;64449;50.016;19.954;2024-03-02T01:35:43;49.60;;;26.50;;
75810;SDS011;64449;50.016;19.954;2024-03-02T01:38:08;52.50;;;27.60;;
75810;SDS011;64449;50.016;19.954;2024-03-02T01:40:34;54.00;;;28.80;;
75810;SDS011;64449;50.016;19.954;2024-03-02T01:43:00;51.90;;;28.30;;
75810;SDS011;64449;50.016;19.954;2024-03-02T01:45:27;52.90;;;27.10;;
75810;SDS011;64449;50.016;19.954;2024-03-02T01:47:53;52.60;;;26.90;;
75810;SDS011;64449;50.016;19.954;2024-03-02T01:50:28;46.00;;;26.10;;
75810;SDS011;64449;50.016;19.954;2024-03-02T01:52:57;43.10;;;22.70;;
75810;SDS011;64449;50.016;19.954;2024-03-02T01:55:24;51.70;;;24.10;;
75810;SDS011;64449;50.016;19.954;2024-03-02T01:57:50;46.90;;;22.80;;
75810;SDS011;64449;50.016;19.954;2024-03-02T02:00:17;39.20;;;22.20;;
75810;SDS011;64449;50.016;19.954;2024-03-02T02:02:44;39.30;;;21.30;;
75810;SDS011;64449;50.016;19.954;2024-03-02T02:05:10;36.40;;;21.00;;
75810;SDS011;64449;50.016;19.954;2024-03-02T02:07:36;40.80;;;20.90;;
75810;SDS011;64449;50.016;19.954;2024-03-02T02:10:01;39.60;;;22.50;;
75810;SDS011;64449;50.016;19.954;2024-03-02T02:12:27;42.50;;;21.60;;
75810;SDS011;64449;50.016;19.954;2024-03-02T02:14:52;42.10;;;20.30;;
75810;SDS011;64449;50.016;19.954;2024-03-02T02:17:18;36.70;;;21.60;;
75810;SDS011;64449;50.016;19.954;2024-03-02T02:19:44;40.90;;;20.80;;
75810;SDS011;64449;50.016;19.954;2024-03-02T02:22:10;36.90;;;19.60;;
75810;SDS011;64449;50.016;19.954;2024-03-02T02:24:36;39.50;;;20.10;;
75810;SDS011;64449;50.016;19.954;2024-03-02T02:27:05;40.20;;;19.60;;
75810;SDS011;64449;50.016;19.954;2024-03-02T02:29:30;37.00;;;19.80;;
75810;SDS011;64449;50.016;19.954;2024-03-02T02:31:56;36.80;;;18.40;;
75810;SDS011;64449;50.016;19.954;2024-03-02T02:34:21;34.50;;;18.40;;
75810;SDS011;64449;50.016;19.954;2024-03-02T02:36:46;34.00;;;17.50;;
75810;SDS011;64449;50.016;19.954;2024-03-02T02:39:13;35.60;;;19.50;;
75810;SDS011;64449;50.016;19.954;2024-03-02T02:41:40;36.40;;;18.70;;
75810;SDS011;64449;50.016;19.954;2024-03-02T02:44:06;31.10;;;17.00;;
75810;SDS011;64449;50.016;19.954;2024-03-02T02:46:31;34.60;;;18.60;;
75810;SDS011;64449;50.016;19.954;2024-03-02T02:48:57;33.40;;;18.20;;
75810;SDS011;64449;50.016;19.954;2024-03-02T02:51:22;35.70;;;18.70;;
75810;SDS011;64449;50.016;19.954;2024-03-02T02:53:50;29.30;;;17.00;;
75810;SDS011;64449;50.016;19.954;2024-03-02T02:56:16;31.80;;;16.60;;
75810;SDS011;64449;50.016;19.954;2024-03-02T02:58:42;37.90;;;17.80;;
75810;SDS011;64449;50.016;19.954;2024-03-02T03:01:07;32.60;;;17.00;;
75810;SDS011;64449;50.016;19.954;2024-03-02T03:03:33;33.90;;;18.10;;
75810;SDS011;64449;50.016;19.954;2024-03-02T03:05:59;33.90;;;16.60;;
75810;SDS011;64449;50.016;19.954;2024-03-02T03:08:24;32.30;;;16.30;;
75810;SDS011;64449;50.016;19.954;2024-03-02T03:10:50;32.30;;;17.60;;
75810;SDS011;64449;50.016;19.954;2024-03-02T03:13:15;33.10;;;17.60;;
75810;SDS011;64449;50.016;19.954;2024-03-02T03:15:41;32.80;;;16.50;;
75810;SDS011;64449;50.016;19.954;2024-03-02T03:18:06;30.60;;;16.50;;
75810;SDS011;64449;50.016;19.954;2024-03-02T03:20:38;32.70;;;16.50;;
75810;SDS011;64449;50.016;19.954;2024-03-02T03:23:03;35.40;;;17.40;;
75810;SDS011;64449;50.016;19.954;2024-03-02T03:25:29;28.20;;;16.20;;
75810;SDS011;64449;50.016;19.954;2024-03-02T03:27:55;33.20;;;17.40;;
75810;SDS011;64449;50.016;19.954;2024-03-02T03:30:21;32.20;;;17.30;;
75810;SDS011;64449;50.016;19.954;2024-03-02T03:32:46;31.40;;;17.50;;
75810;SDS011;64449;50.016;19.954;2024-03-02T03:35:13;32.80;;;15.90;;
75810;SDS011;64449;50.016;19.954;2024-03-02T03:37:40;31.50;;;15.90;;
75810;SDS011;64449;50.016;19.954;2024-03-02T03:40:06;32.70;;;16.40;;
75810;SDS011;64449;50.016;19.954;2024-03-02T03:42:38;31.50;;;15.80;;
75810;SDS011;64449;50.016;19.954;2024-03-02T03:45:04;33.20;;;16.60;;
75810;SDS011;64449;50.016;19.954;2024-03-02T03:47:31;34.60;;;17.20;;
75810;SDS011;64449;50.016;19.954;2024-03-02T03:49:57;33.60;;;17.00;;
75810;SDS011;64449;50.016;19.954;2024-03-02T03:52:23;37.90;;;18.90;;
75810;SDS011;64449;50.016;19.954;2024-03-02T03:54:49;32.40;;;18.80;;
75810;SDS011;64449;50.016;19.954;2024-03-02T03:57:14;32.20;;;19.40;;
75810;SDS011;64449;50.016;19.954;2024-03-02T03:59:41;34.30;;;19.40;;
75810;SDS011;64449;50.016;19.954;2024-03-02T04:02:07;43.00;;;24.60;;
75810;SDS011;64449;50.016;19.954;2024-03-02T04:04:33;43.10;;;25.00;;
75810;SDS011;64449;50.016;19.954;2024-03-02T04:06:58;38.50;;;20.80;;
75810;SDS011;64449;50.016;19.954;2024-03-02T04:09:24;34.20;;;18.70;;
75810;SDS011;64449;50.016;19.954;2024-03-02T04:11:50;32.10;;;17.60;;
75810;SDS011;64449;50.016;19.954;2024-03-02T04:14:16;33.30;;;18.20;;
75810;SDS011;64449;50.016;19.954;2024-03-02T04:16:42;35.90;;;18.60;;
75810;SDS011;64449;50.016;19.954;2024-03-02T04:19:08;30.40;;;16.90;;
75810;SDS011;64449;50.016;19.954;2024-03-02T04:21:33;30.40;;;17.30;;
75810;SDS011;64449;50.016;19.954;2024-03-02T04:23:58;33.40;;;16.30;;
75810;SDS011;64449;50.016;19.954;2024-03-02T04:26:24;33.20;;;17.80;;
75810;SDS011;64449;50.016;19.954;2024-03-02T04:28:53;30.10;;;16.50;;
75810;SDS011;64449;50.016;19.954;2024-03-02T04:31:19;27.60;;;14.80;;
75810;SDS011;64449;50.016;19.954;2024-03-02T04:33:45;25.90;;;14.50;;
75810;SDS011;64449;50.016;19.954;2024-03-02T04:36:11;26.10;;;14.50;;
75810;SDS011;64449;50.016;19.954;2024-03-02T04:38:37;29.00;;;15.60;;
75810;SDS011;64449;50.016;19.954;2024-03-02T04:41:06;26.40;;;14.30;;
75810;SDS011;64449;50.016;19.954;2024-03-02T04:43:32;28.70;;;14.60;;
75810;SDS011;64449;50.016;19.954;2024-03-02T04:45:58;30.10;;;15.00;;
75810;SDS011;64449;50.016;19.954;2024-03-02T04:48:25;28.70;;;15.20;;
75810;SDS011;64449;50.016;19.954;2024-03-02T04:50:50;32.50;;;16.50;;
75810;SDS011;64449;50.016;19.954;2024-03-02T04:53:16;32.70;;;17.20;;
75810;SDS011;64449;50.016;19.954;2024-03-02T04:55:41;31.30;;;15.50;;
75810;SDS011;64449;50.016;19.954;2024-03-02T04:58:07;36.30;;;15.80;;
75810;SDS011;64449;50.016;19.954;2024-03-02T05:00:32;29.00;;;16.90;;
75810;SDS011;64449;50.016;19.954;2024-03-02T05:02:59;33.00;;;17.90;;
75810;SDS011;64449;50.016;19.954;2024-03-02T05:05:24;33.00;;;17.80;;
75810;SDS011;64449;50.016;19.954;2024-03-02T05:07:50;31.00;;;17.20;;
75810;SDS011;64449;50.016;19.954;2024-03-02T05:10:15;35.90;;;19.80;;
75810;SDS011;64449;50.016;19.954;2024-03-02T05:12:41;36.70;;;20.10;;
75810;SDS011;64449;50.016;19.954;2024-03-02T05:15:09;42.80;;;22.70;;
75810;SDS011;64449;50.016;19.954;2024-03-02T05:17:37;47.10;;;23.00;;
75810;SDS011;64449;50.016;19.954;2024-03-02T05:20:03;41.50;;;22.20;;
75810;SDS011;64449;50.016;19.954;2024-03-02T05:22:30;34.90;;;20.80;;
75810;SDS011;64449;50.016;19.954;2024-03-02T05:24:55;41.20;;;21.40;;
75810;SDS011;64449;50.016;19.954;2024-03-02T05:27:21;40.60;;;21.30;;
75810;SDS011;64449;50.016;19.954;2024-03-02T05:29:47;39.00;;;22.60;;
75810;SDS011;64449;50.016;19.954;2024-03-02T05:32:12;37.00;;;19.70;;
75810;SDS011;64449;50.016;19.954;2024-03-02T05:34:38;35.30;;;21.10;;
75810;SDS011;64449;50.016;19.954;2024-03-02T05:37:03;35.70;;;20.10;;
75810;SDS011;64449;50.016;19.954;2024-03-02T05:39:29;33.90;;;19.40;;
75810;SDS011;64449;50.016;19.954;2024-03-02T05:41:54;34.80;;;19.30;;
75810;SDS011;64449;50.016;19.954;2024-03-02T05:44:19;34.90;;;18.80;;
75810;SDS011;64449;50.016;19.954;2024-03-02T05:46:45;30.50;;;17.70;;
75810;SDS011;64449;50.016;19.954;2024-03-02T05:49:10;29.30;;;17.10;;
75810;SDS011;64449;50.016;19.954;2024-03-02T05:51:36;30.90;;;16.80;;
75810;SDS011;64449;50.016;19.954;2024-03-02T05:54:02;29.90;;;16.10;;
75810;SDS011;64449;50.016;19.954;2024-03-02T05:56:28;30.10;;;16.20;;
75810;SDS011;64449;50.016;19.954;2024-03-02T05:58:53;27.90;;;16.30;;
75810;SDS011;64449;50.016;19.954;2024-03-02T06:01:45;28.40;;;15.10;;
75810;SDS011;64449;50.016;19.954;2024-03-02T06:04:20;31.40;;;16.50;;
75810;SDS011;64449;50.016;19.954;2024-03-02T06:06:45;30.90;;;16.20;;
75810;SDS011;64449;50.016;19.954;2024-03-02T06:09:11;28.60;;;15.70;;
75810;SDS011;64449;50.016;19.954;2024-03-02T06:11:40;29.70;;;15.70;;
75810;SDS011;64449;50.016;19.954;2024-03-02T06:14:06;31.40;;;16.40;;
75810;SDS011;64449;50.016;19.954;2024-03-02T06:16:33;34.50;;;16.20;;
75810;SDS011;64449;50.016;19.954;2024-03-02T06:18:58;32.50;;;16.40;;
75810;SDS011;64449;50.016;19.954;2024-03-02T06:21:24;28.90;;;16.70;;
75810;SDS011;64449;50.016;19.954;2024-03-02T06:23:50;29.60;;;16.00;;
75810;SDS011;64449;50.016;19.954;2024-03-02T06:26:16;30.80;;;16.50;;
75810;SDS011;64449;50.016;19.954;2024-03-02T06:28:41;33.00;;;18.20;;
75810;SDS011;64449;50.016;19.954;2024-03-02T06:31:07;33.60;;;17.50;;
75810;SDS011;64449;50.016;19.954;2024-03-02T06:33:33;28.60;;;17.70;;
75810;SDS011;64449;50.016;19.954;2024-03-02T06:35:58;30.40;;;17.60;;
75810;SDS011;64449;50.016;19.954;2024-03-02T06:38:23;33.80;;;18.80;;
75810;SDS011;64449;50.016;19.954;2024-03-02T06:40:49;36.90;;;18.70;;
75810;SDS011;64449;50.016;19.954;2024-03-02T06:43:14;33.70;;;19.50;;
75810;SDS011;64449;50.016;19.954;2024-03-02T06:45:40;39.10;;;19.70;;
75810;SDS011;64449;50.016;19.954;2024-03-02T06:48:05;30.80;;;18.60;;
75810;SDS011;64449;50.016;19.954;2024-03-02T06:50:31;32.00;;;17.10;;
75810;SDS011;64449;50.016;19.954;2024-03-02T06:52:57;34.10;;;19.20;;
75810;SDS011;64449;50.016;19.954;2024-03-02T06:55:22;30.30;;;17.40;;
75810;SDS011;64449;50.016;19.954;2024-03-02T06:57:49;32.20;;;17.00;;
75810;SDS011;64449;50.016;19.954;2024-03-02T07:00:15;30.30;;;17.10;;
75810;SDS011;64449;50.016;19.954;2024-03-02T07:02:43;31.20;;;17.90;;
75810;SDS011;64449;50.016;19.954;2024-03-02T07:05:09;28.70;;;16.40;;
75810;SDS011;64449;50.016;19.954;2024-03-02T07:07:36;31.60;;;17.90;;
75810;SDS011;64449;50.016;19.954;2024-03-02T07:10:03;31.50;;;17.30;;
75810;SDS011;64449;50.016;19.954;2024-03-02T07:12:34;29.10;;;17.00;;
75810;SDS011;64449;50.016;19.954;2024-03-02T07:15:00;44.00;;;24.40;;
75810;SDS011;64449;50.016;19.954;2024-03-02T07:17:28;43.60;;;22.50;;
75810;SDS011;64449;50.016;19.954;2024-03-02T07:19:54;36.90;;;23.50;;
75810;SDS011;64449;50.016;19.954;2024-03-02T07:22:19;36.30;;;21.40;;
75810;SDS011;64449;50.016;19.954;2024-03-02T07:24:45;38.70;;;22.80;;
75810;SDS011;64449;50.016;19.954;2024-03-02T07:27:11;36.70;;;22.80;;
75810;SDS011;64449;50.016;19.954;2024-03-02T07:29:37;37.00;;;21.60;;
75810;SDS011;64449;50.016;19.954;2024-03-02T07:32:03;32.80;;;20.40;;
75810;SDS011;64449;50.016;19.954;2024-03-02T07:34:30;33.10;;;20.50;;
75810;SDS011;64449;50.016;19.954;2024-03-02T07:36:55;36.20;;;19.40;;
75810;SDS011;64449;50.016;19.954;2024-03-02T07:39:21;30.00;;;18.20;;
75810;SDS011;64449;50.016;19.954;2024-03-02T07:41:47;33.90;;;19.50;;
75810;SDS011;64449;50.016;19.954;2024-03-02T07:44:13;33.90;;;19.20;;
75810;SDS011;64449;50.016;19.954;2024-03-02T07:46:44;37.40;;;19.80;;
75810;SDS011;64449;50.016;19.954;2024-03-02T07:49:17;36.50;;;19.80;;
75810;SDS011;64449;50.016;19.954;2024-03-02T07:51:44;35.90;;;18.90;;
75810;SDS011;64449;50.016;19.954;2024-03-02T07:54:09;36.30;;;19.80;;
75810;SDS011;64449;50.016;19.954;2024-03-02T07:56:35;34.70;;;20.10;;
75810;SDS011;64449;50.016;19.954;2024-03-02T07:59:01;33.50;;;19.70;;
75810;SDS011;64449;50.016;19.954;2024-03-02T08:01:30;29.90;;;18.00;;
75810;SDS011;64449;50.016;19.954;2024-03-02T08:03:57;29.00;;;18.50;;
75810;SDS011;64449;50.016;19.954;2024-03-02T08:06:27;34.40;;;18.50;;
75810;SDS011;64449;50.016;19.954;2024-03-02T08:08:53;34.10;;;19.40;;
75810;SDS011;64449;50.016;19.954;2024-03-02T08:11:20;32.50;;;18.70;;
75810;SDS011;64449;50.016;19.954;2024-03-02T08:13:45;33.30;;;17.80;;
75810;SDS011;64449;50.016;19.954;2024-03-02T08:16:11;32.10;;;18.20;;
75810;SDS011;64449;50.016;19.954;2024-03-02T08:18:36;33.80;;;18.30;;
75810;SDS011;64449;50.016;19.954;2024-03-02T08:21:02;29.60;;;16.70;;
75810;SDS011;64449;50.016;19.954;2024-03-02T08:23:28;31.40;;;18.10;;
75810;SDS011;64449;50.016;19.954;2024-03-02T08:25:54;30.00;;;17.60;;
75810;SDS011;64449;50.016;19.954;2024-03-02T08:28:19;29.10;;;18.90;;
75810;SDS011;64449;50.016;19.954;2024-03-02T08:30:45;36.10;;;19.90;;
75810;SDS011;64449;50.016;19.954;2024-03-02T08:33:10;35.90;;;21.40;;
75810;SDS011;64449;50.016;19.954;2024-03-02T08:35:36;35.80;;;19.80;;
75810;SDS011;64449;50.016;19.954;2024-03-02T08:38:02;36.70;;;20.10;;
75810;SDS011;64449;50.016;19.954;2024-03-02T08:40:28;36.60;;;20.40;;
75810;SDS011;64449;50.016;19.954;2024-03-02T08:42:54;34.00;;;19.60;;
75810;SDS011;64449;50.016;19.954;2024-03-02T08:45:19;38.10;;;21.60;;
75810;SDS011;64449;50.016;19.954;2024-03-02T08:47:45;43.30;;;21.30;;
75810;SDS011;64449;50.016;19.954;2024-03-02T08:50:11;35.30;;;22.50;;
75810;SDS011;64449;50.016;19.954;2024-03-02T08:52:37;38.80;;;22.60;;
75810;SDS011;64449;50.016;19.954;2024-03-02T08:55:03;38.60;;;23.90;;
75810;SDS011;64449;50.016;19.954;2024-03-02T08:57:29;40.60;;;22.80;;
75810;SDS011;64449;50.016;19.954;2024-03-02T08:59:55;40.90;;;21.90;;
75810;SDS011;64449;50.016;19.954;2024-03-02T09:02:20;41.80;;;20.60;;
75810;SDS011;64449;50.016;19.954;2024-03-02T09:04:46;35.60;;;19.60;;
75810;SDS011;64449;50.016;19.954;2024-03-02T09:07:11;39.80;;;21.50;;
75810;SDS011;64449;50.016;19.954;2024-03-02T09:09:37;36.70;;;22.50;;
75810;SDS011;64449;50.016;19.954;2024-03-02T09:12:04;32.00;;;20.30;;
75810;SDS011;64449;50.016;19.954;2024-03-02T09:14:30;43.00;;;22.80;;
75810;SDS011;64449;50.016;19.954;2024-03-02T09:16:56;39.10;;;21.00;;
75810;SDS011;64449;50.016;19.954;2024-03-02T09:19:21;38.70;;;22.00;;
75810;SDS011;64449;50.016;19.954;2024-03-02T09:21:47;35.10;;;21.50;;
75810;SDS011;64449;50.016;19.954;2024-03-02T09:24:12;36.60;;;20.60;;
75810;SDS011;64449;50.016;19.954;2024-03-02T09:26:38;35.40;;;22.70;;
75810;SDS011;64449;50.016;19.954;2024-03-02T09:29:03;35.70;;;20.80;;
75810;SDS011;64449;50.016;19.954;2024-03-02T09:31:29;31.20;;;18.00;;
75810;SDS011;64449;50.016;19.954;2024-03-02T09:33:54;33.40;;;18.70;;
75810;SDS011;64449;50.016;19.954;2024-03-02T09:36:20;31.80;;;18.60;;
75810;SDS011;64449;50.016;19.954;2024-03-02T09:38:47;28.30;;;16.80;;
75810;SDS011;64449;50.016;19.954;2024-03-02T09:41:13;30.10;;;18.10;;
75810;SDS011;64449;50.016;19.954;2024-03-02T09:43:39;34.00;;;18.50;;
75810;SDS011;64449;50.016;19.954;2024-03-02T09:46:05;31.30;;;18.60;;
75810;SDS011;64449;50.016;19.954;2024-03-02T09:48:33;32.60;;;18.40;;
75810;SDS011;64449;50.016;19.954;2024-03-02T09:50:59;29.40;;;17.60;;
75810;SDS011;64449;50.016;19.954;2024-03-02T09:53:28;29.30;;;17.60;;
75810;SDS011;64449;50.016;19.954;2024-03-02T09:55:57;35.30;;;18.50;;
75810;SDS011;64449;50.016;19.954;2024-03-02T09:58:26;31.80;;;16.90;;
75810;SDS011;64449;50.016;19.954;2024-03-02T10:00:52;29.70;;;17.20;;
75810;SDS011;64449;50.016;19.954;2024-03-02T10:03:18;27.00;;;16.70;;
75810;SDS011;64449;50.016;19.954;2024-03-02T10:05:44;29.00;;;17.30;;
75810;SDS011;64449;50.016;19.954;2024-03-02T10:08:09;30.30;;;17.70;;
75810;SDS011;64449;50.016;19.954;2024-03-02T10:10:35;31.60;;;16.50;;
75810;SDS011;64449;50.016;19.954;2024-03-02T10:13:05;33.30;;;18.70;;
75810;SDS011;64449;50.016;19.954;2024-03-02T10:15:32;28.30;;;17.60;;
75810;SDS011;64449;50.016;19.954;2024-03-02T10:17:58;32.40;;;19.30;;
75810;SDS011;64449;50.016;19.954;2024-03-02T10:20:24;32.30;;;17.80;;
75810;SDS011;64449;50.016;19.954;2024-03-02T10:22:50;34.00;;;19.50;;
75810;SDS011;64449;50.016;19.954;2024-03-02T10:25:28;31.10;;;17.60;;
75810;SDS011;64449;50.016;19.954;2024-03-02T10:27:57;31.30;;;18.20;;
75810;SDS011;64449;50.016;19.954;2024-03-02T10:30:23;24.40;;;16.30;;
75810;SDS011;64449;50.016;19.954;2024-03-02T10:32:49;29.40;;;19.20;;
75810;SDS011;64449;50.016;19.954;2024-03-02T10:35:16;25.80;;;17.30;;
75810;SDS011;64449;50.016;19.954;2024-03-02T10:37:42;27.20;;;17.00;;
75810;SDS011;64449;50.016;19.954;2024-03-02T10:40:08;29.80;;;17.90;;
75810;SDS011;64449;50.016;19.954;2024-03-02T10:42:37;27.90;;;16.70;;
75810;SDS011;64449;50.016;19.954;2024-03-02T10:45:05;31.50;;;17.40;;
75810;SDS011;64449;50.016;19.954;2024-03-02T10:47:32;27.30;;;16.60;;
75810;SDS011;64449;50.016;19.954;2024-03-02T10:50:01;28.10;;;16.40;;
75810;SDS011;64449;50.016;19.954;2024-03-02T10:52:39;29.70;;;18.80;;
75810;SDS011;64449;50.016;19.954;2024-03-02T10:55:06;34.80;;;22.20;;
75810;SDS011;64449;50.016;19.954;2024-03-02T10:57:41;30.00;;;18.10;;
75810;SDS011;64449;50.016;19.954;2024-03-02T11:00:15;32.20;;;17.40;;
75810;SDS011;64449;50.016;19.954;2024-03-02T11:02:49;27.80;;;17.20;;
75810;SDS011;64449;50.016;19.954;2024-03-02T11:05:18;28.70;;;17.70;;
75810;SDS011;64449;50.016;19.954;2024-03-02T11:08:06;30.10;;;17.30;;
75810;SDS011;64449;50.016;19.954;2024-03-02T11:10:34;27.60;;;15.90;;
75810;SDS011;64449;50.016;19.954;2024-03-02T11:13:02;24.80;;;15.10;;
75810;SDS011;64449;50.016;19.954;2024-03-02T11:15:31;26.00;;;15.70;;
75810;SDS011;64449;50.016;19.954;2024-03-02T11:17:58;34.90;;;15.30;;
75810;SDS011;64449;50.016;19.954;2024-03-02T11:20:24;25.30;;;16.10;;
75810;SDS011;64449;50.016;19.954;2024-03-02T11:22:50;26.30;;;17.00;;
75810;SDS011;64449;50.016;19.954;2024-03-02T11:25:23;27.90;;;17.30;;
75810;SDS011;64449;50.016;19.954;2024-03-02T11:33:01;31.30;;;18.70;;
75810;SDS011;64449;50.016;19.954;2024-03-02T11:35:51;29.60;;;19.20;;
75810;SDS011;64449;50.016;19.954;2024-03-02T11:38:17;27.00;;;16.70;;
75810;SDS011;64449;50.016;19.954;2024-03-02T11:40:44;26.70;;;16.50;;
75810;SDS011;64449;50.016;19.954;2024-03-02T11:43:09;28.10;;;17.40;;
75810;SDS011;64449;50.016;19.954;2024-03-02T11:45:36;30.20;;;17.60;;
75810;SDS011;64449;50.016;19.954;2024-03-02T11:48:05;28.80;;;16.90;;
75810;SDS011;64449;50.016;19.954;2024-03-02T11:50:35;28.40;;;17.70;;
75810;SDS011;64449;50.016;19.954;2024-03-02T11:53:05;28.50;;;16.80;;
75810;SDS011;64449;50.016;19.954;2024-03-02T11:55:34;31.20;;;17.30;;
75810;SDS011;64449;50.016;19.954;2024-03-02T11:58:01;24.00;;;15.40;;
75810;SDS011;64449;50.016;19.954;2024-03-02T12:00:28;25.50;;;16.90;;
75810;SDS011;64449;50.016;19.954;2024-03-02T12:05:27;25.10;;;14.70;;
75810;SDS011;64449;50.016;19.954;2024-03-02T12:07:57;24.90;;;17.00;;
75810;SDS011;64449;50.016;19.954;2024-03-02T12:10:23;28.70;;;15.90;;
75810;SDS011;64449;50.016;19.954;2024-03-02T12:12:58;31.10;;;19.10;;
75810;SDS011;64449;50.016;19.954;2024-03-02T12:15:32;28.60;;;17.90;;
75810;SDS011;64449;50.016;19.954;2024-03-02T12:17:59;26.50;;;17.30;;
75810;SDS011;64449;50.016;19.954;2024-03-02T12:20:27;25.90;;;16.10;;
75810;SDS011;64449;50.016;19.954;2024-03-02T12:22:55;27.80;;;17.90;;
75810;SDS011;64449;50.016;19.954;2024-03-02T12:25:23;26.80;;;17.20;;
75810;SDS011;64449;50.016;19.954;2024-03-02T12:27:50;28.70;;;18.90;;
75810;SDS011;64449;50.016;19.954;2024-03-02T12:30:17;26.90;;;17.20;;
75810;SDS011;64449;50.016;19.954;2024-03-02T12:32:43;29.10;;;18.20;;
75810;SDS011;64449;50.016;19.954;2024-03-02T12:35:10;29.10;;;17.60;;
75810;SDS011;64449;50.016;19.954;2024-03-02T12:37:43;34.20;;;18.80;;
75810;SDS011;64449;50.016;19.954;2024-03-02T12:40:15;30.20;;;18.50;;
75810;SDS011;64449;50.016;19.954;2024-03-02T12:42:43;38.60;;;19.10;;
75810;SDS011;64449;50.016;19.954;2024-03-02T12:45:10;27.70;;;17.60;;
75810;SDS011;64449;50.016;19.954;2024-03-02T12:47:36;29.10;;;19.60;;
75810;SDS011;64449;50.016;19.954;2024-03-02T12:50:06;28.40;;;19.80;;
75810;SDS011;64449;50.016;19.954;2024-03-02T12:52:32;29.50;;;18.40;;
75810;SDS011;64449;50.016;19.954;2024-03-02T12:55:02;28.60;;;18.30;;
75810;SDS011;64449;50.016;19.954;2024-03-02T12:57:30;27.60;;;18.20;;
75810;SDS011;64449;50.016;19.954;2024-03-02T13:00:06;29.40;;;18.80;;
75810;SDS011;64449;50.016;19.954;2024-03-02T13:02:34;27.30;;;18.00;;
75810;SDS011;64449;50.016;19.954;2024-03-02T13:05:05;28.70;;;18.50;;
75810;SDS011;64449;50.016;19.954;2024-03-02T13:07:36;27.10;;;18.70;;
75810;SDS011;64449;50.016;19.954;2024-03-02T13:10:02;32.20;;;16.70;;
75810;SDS011;64449;50.016;19.954;2024-03-02T13:12:28;27.70;;;17.80;;
75810;SDS011;64449;50.016;19.954;2024-03-02T13:14:57;32.10;;;16.60;;
75810;SDS011;64449;50.016;19.954;2024-03-02T13:17:23;24.30;;;16.20;;
75810;SDS011;64449;50.016;19.954;2024-03-02T13:19:55;24.60;;;16.80;;
75810;SDS011;64449;50.016;19.954;2024-03-02T13:22:21;28.50;;;16.70;;
75810;SDS011;64449;50.016;19.954;2024-03-02T13:24:47;27.30;;;17.80;;
75810;SDS011;64449;50.016;19.954;2024-03-02T13:27:13;31.30;;;17.70;;
75810;SDS011;64449;50.016;19.954;2024-03-02T13:29:39;23.60;;;16.40;;
75810;SDS011;64449;50.016;19.954;2024-03-02T13:32:04;28.40;;;17.50;;
75810;SDS011;64449;50.016;19.954;2024-03-02T13:34:30;29.40;;;18.50;;
75810;SDS011;64449;50.016;19.954;2024-03-02T13:36:55;24.90;;;16.40;;
75810;SDS011;64449;50.016;19.954;2024-03-02T13:39:21;27.30;;;17.30;;
75810;SDS011;64449;50.016;19.954;2024-03-02T13:41:46;26.20;;;16.60;;
75810;SDS011;64449;50.016;19.954;2024-03-02T13:44:21;25.60;;;16.60;;
75810;SDS011;64449;50.016;19.954;2024-03-02T13:46:46;29.30;;;18.20;;
75810;SDS011;64449;50.016;19.954;2024-03-02T13:49:13;25.10;;;15.40;;
75810;SDS011;64449;50.016;19.954;2024-03-02T13:51:39;25.50;;;16.20;;
75810;SDS011;64449;50.016;19.954;2024-03-02T13:54:05;24.90;;;16.40;;
75810;SDS011;64449;50.016;19.954;2024-03-02T13:56:30;25.40;;;15.60;;
75810;SDS011;64449;50.016;19.954;2024-03-02T13:58:57;25.20;;;16.10;;
75810;SDS011;64449;50.016;19.954;2024-03-02T14:01:23;21.50;;;14.90;;
75810;SDS011;64449;50.016;19.954;2024-03-02T14:03:49;32.20;;;15.70;;
75810;SDS011;64449;50.016;19.954;2024-03-02T14:06:16;26.20;;;15.60;;
75810;SDS011;64449;50.016;19.954;2024-03-02T14:08:41;27.40;;;16.80;;
75810;SDS011;64449;50.016;19.954;2024-03-02T14:11:09;24.70;;;16.80;;
75810;SDS011;64449;50.016;19.954;2024-03-02T14:13:40;26.40;;;16.30;;
75810;SDS011;64449;50.016;19.954;2024-03-02T14:16:12;26.90;;;17.00;;